METARs

EEEI - Ämari Air Base

EEEI 231250Z 13009KT 080V180 CAVOK 11/M02 Q1012 R24/090095 NOSIG

EEKA - Kärdla

EEKA 231250Z 15011KT 9999 FEW030 11/01 Q1012

EEKE - Kuressaare

EEKE 231250Z 12014KT CAVOK 08/02 Q1012

EEPU - Pärnu

EEPU 231250Z 21007KT 160V270 CAVOK 12/01 Q1013

EETN - Lennart Meri Tallinn

EETN 231250Z 15009KT 110V200 CAVOK 11/M04 Q1013 NOSIG

EETU - Tartu

EETU 231250Z 13005KT 070V170 CAVOK 10/M03 Q1014

Sign In

ATC Booking

currently no ATC Bookings...